createdAt,value
2023-01-17T00:00:23.221Z,62
2023-01-17T00:02:06.792Z,62
2023-01-17T00:03:50.475Z,62
2023-01-17T00:05:34.179Z,62.1
2023-01-17T00:07:17.885Z,62.1
2023-01-17T00:09:01.647Z,62.2
2023-01-17T00:10:45.409Z,62.2
2023-01-17T00:12:29.010Z,62.2
2023-01-17T00:14:12.690Z,62.3
2023-01-17T00:15:56.424Z,62.3
2023-01-17T00:17:40.176Z,62.3
2023-01-17T00:19:23.799Z,62.3
2023-01-17T00:21:07.664Z,62
2023-01-17T00:22:51.199Z,61.9
2023-01-17T00:24:34.936Z,61.8
2023-01-17T00:26:18.627Z,61.9
2023-01-17T00:28:02.417Z,61.9
2023-01-17T00:29:46.080Z,61.6
2023-01-17T00:31:29.826Z,61.6
2023-01-17T00:33:13.522Z,61.9
2023-01-17T00:34:57.137Z,61.8
2023-01-17T00:36:40.840Z,61.9
2023-01-17T00:38:24.566Z,62
2023-01-17T00:40:08.258Z,62
2023-01-17T00:41:51.936Z,62
2023-01-17T00:43:35.658Z,62
2023-01-17T00:45:19.340Z,61.9
2023-01-17T00:47:03.054Z,61.9
2023-01-17T00:48:46.766Z,62
2023-01-17T00:50:30.439Z,62
2023-01-17T00:52:14.210Z,62
2023-01-17T00:53:57.855Z,61.9
2023-01-17T00:55:41.619Z,61.8
2023-01-17T00:57:25.254Z,61.8
2023-01-17T00:59:08.971Z,61.8
2023-01-17T01:00:52.663Z,61.7
2023-01-17T01:02:36.369Z,61.8
2023-01-17T01:04:20.067Z,61.9
2023-01-17T01:06:03.850Z,61.9
2023-01-17T01:07:47.484Z,62
2023-01-17T01:09:31.179Z,62
2023-01-17T01:11:14.883Z,62.1
2023-01-17T01:12:58.588Z,62.1
2023-01-17T01:14:42.292Z,62.2
2023-01-17T01:16:25.991Z,62.2
2023-01-17T01:18:09.691Z,62.2
2023-01-17T01:19:53.398Z,62.3
2023-01-17T01:21:37.109Z,62.3
2023-01-17T01:23:20.797Z,62.3
2023-01-17T01:25:04.504Z,62.1
2023-01-17T01:28:32.017Z,62
2023-01-17T01:30:15.617Z,62
2023-01-17T01:31:59.311Z,62.1
2023-01-17T01:33:43.017Z,61.9
2023-01-17T01:35:26.720Z,61.9
2023-01-17T01:37:10.417Z,61.8
2023-01-17T01:38:54.124Z,61.7
2023-01-17T01:40:37.822Z,61.8
2023-01-17T01:42:21.538Z,62
2023-01-17T01:44:05.246Z,62
2023-01-17T01:45:48.931Z,62
2023-01-17T01:47:32.737Z,62.1
2023-01-17T01:49:16.345Z,62.1
2023-01-17T01:51:00.043Z,62.1
2023-01-17T01:52:43.761Z,62.1
2023-01-17T01:54:27.448Z,62.1
2023-01-17T01:56:11.190Z,62.1
2023-01-17T01:57:54.855Z,62.2
2023-01-17T01:59:38.556Z,62.2
2023-01-17T02:01:22.288Z,62.3
2023-01-17T02:03:05.974Z,62.3
2023-01-17T02:04:49.660Z,62.3
2023-01-17T02:06:33.361Z,62.4
2023-01-17T02:08:17.107Z,62.4
2023-01-17T02:10:00.773Z,62.5
2023-01-17T02:11:44.494Z,62.5
2023-01-17T02:13:28.178Z,62.5
2023-01-17T02:15:11.884Z,62.5
2023-01-17T02:16:55.585Z,62.6
2023-01-17T02:18:39.283Z,62.6
2023-01-17T02:20:22.993Z,62.7
2023-01-17T02:22:06.722Z,62.7
2023-01-17T02:23:50.410Z,62.7
2023-01-17T02:25:34.107Z,62.8
2023-01-17T02:27:17.796Z,62.7
2023-01-17T02:29:01.503Z,62.8
2023-01-17T02:30:45.209Z,62.8
2023-01-17T02:32:28.903Z,62.8
2023-01-17T02:34:12.615Z,62.8
2023-01-17T02:35:56.310Z,62.8
2023-01-17T02:37:40.044Z,62.9
2023-01-17T02:39:23.742Z,62.9
2023-01-17T02:41:07.417Z,63
2023-01-17T02:42:51.132Z,63
2023-01-17T02:44:34.837Z,63
2023-01-17T02:46:18.529Z,63
2023-01-17T02:48:02.298Z,63
2023-01-17T02:49:45.927Z,63
2023-01-17T02:51:29.639Z,63
2023-01-17T02:53:13.352Z,63
2023-01-17T02:54:57.033Z,63.1
2023-01-17T02:56:40.740Z,63
2023-01-17T02:58:24.507Z,63.1
2023-01-17T03:00:08.157Z,63.1
2023-01-17T03:01:51.882Z,63.1
2023-01-17T03:03:35.556Z,63.1
2023-01-17T03:05:19.328Z,63.1
2023-01-17T03:07:02.971Z,63.2
2023-01-17T03:08:46.675Z,63.2
2023-01-17T03:10:30.363Z,63.2
2023-01-17T03:12:14.071Z,63.2
2023-01-17T03:13:57.785Z,63.3
2023-01-17T03:15:41.500Z,63.3
2023-01-17T03:17:25.173Z,63.3
2023-01-17T03:19:08.884Z,63.3
2023-01-17T03:20:52.590Z,63.2
2023-01-17T03:22:36.288Z,63.1
2023-01-17T03:24:19.996Z,63.2
2023-01-17T03:26:03.689Z,63.2
2023-01-17T03:27:47.391Z,63.1
2023-01-17T03:29:31.102Z,63.1
2023-01-17T03:31:14.799Z,63.1
2023-01-17T03:32:58.515Z,63.1
2023-01-17T03:34:42.208Z,63
2023-01-17T03:36:25.909Z,63
2023-01-17T03:38:09.614Z,63
2023-01-17T03:39:53.314Z,63
2023-01-17T03:41:37.015Z,63.1
2023-01-17T03:43:20.721Z,63.1
2023-01-17T03:45:04.437Z,63.1
2023-01-17T03:46:48.125Z,63.1
2023-01-17T03:48:31.826Z,63.1
2023-01-17T03:50:15.530Z,63.2
2023-01-17T03:51:59.244Z,63.2
2023-01-17T03:53:42.933Z,63.2
2023-01-17T03:55:26.634Z,63.3
2023-01-17T03:57:10.349Z,63.3
2023-01-17T03:58:54.031Z,63.3
2023-01-17T04:00:37.747Z,63.3
2023-01-17T04:02:21.443Z,63.4
2023-01-17T04:04:05.147Z,63.4
2023-01-17T04:05:48.839Z,63.4
2023-01-17T04:07:32.552Z,63.4
2023-01-17T04:09:16.242Z,63.4
2023-01-17T04:10:59.955Z,63.4
2023-01-17T04:12:43.649Z,63.5
2023-01-17T04:14:27.370Z,63.5
2023-01-17T04:16:11.063Z,63.5
2023-01-17T04:17:54.788Z,63.5
2023-01-17T04:21:22.184Z,63.5
2023-01-17T04:23:05.876Z,63.5
2023-01-17T04:24:49.572Z,63.5
2023-01-17T04:26:33.295Z,63.6
2023-01-17T04:28:16.998Z,63.6
2023-01-17T04:30:00.697Z,63.6
2023-01-17T04:31:44.389Z,63.6
2023-01-17T04:33:28.099Z,63.6
2023-01-17T04:35:11.796Z,63.6
2023-01-17T04:36:55.502Z,63.6
2023-01-17T04:38:39.200Z,63.6
2023-01-17T04:40:22.905Z,63.7
2023-01-17T04:42:06.620Z,63.6
2023-01-17T04:43:50.313Z,63.6
2023-01-17T04:45:34.008Z,63.6
2023-01-17T04:47:17.718Z,63.6
2023-01-17T04:50:45.118Z,63.5
2023-01-17T04:52:28.829Z,63.4
2023-01-17T04:54:12.526Z,63.4
2023-01-17T04:55:56.231Z,63.4
2023-01-17T04:57:39.999Z,63.3
2023-01-17T04:59:23.636Z,63.3
2023-01-17T05:01:07.338Z,63.3
2023-01-17T05:02:51.041Z,63.3
2023-01-17T05:04:34.755Z,63.2
2023-01-17T05:06:18.480Z,63.2
2023-01-17T05:08:02.152Z,63.2
2023-01-17T05:09:45.857Z,63.2
2023-01-17T05:11:29.549Z,63.2
2023-01-17T05:13:13.254Z,63.1
2023-01-17T05:14:56.959Z,63.1
2023-01-17T05:16:40.714Z,63.1
2023-01-17T05:18:24.392Z,63.1
2023-01-17T05:20:08.159Z,63.1
2023-01-17T05:21:51.770Z,63
2023-01-17T05:23:35.479Z,63
2023-01-17T05:25:19.172Z,63
2023-01-17T05:27:02.879Z,63
2023-01-17T05:28:46.587Z,62.9
2023-01-17T05:30:30.295Z,62.9
2023-01-17T05:32:13.983Z,62.9
2023-01-17T05:33:57.693Z,62.9
2023-01-17T05:35:41.393Z,62.9
2023-01-17T05:37:25.092Z,62.9
2023-01-17T05:39:08.840Z,62.9
2023-01-17T05:40:52.501Z,62.9
2023-01-17T05:42:36.199Z,62.8
2023-01-17T05:44:19.901Z,62.8
2023-01-17T05:46:03.600Z,62.8
2023-01-17T05:47:47.306Z,62.8
2023-01-17T05:49:31.021Z,62.8
2023-01-17T05:51:14.735Z,62.8
2023-01-17T05:52:58.418Z,62.7
2023-01-17T05:54:42.132Z,62.7
2023-01-17T05:56:25.825Z,62.7
2023-01-17T05:58:09.529Z,62.7
2023-01-17T05:59:53.224Z,62.7
2023-01-17T06:01:36.988Z,62.6
2023-01-17T06:03:20.637Z,62.6
2023-01-17T06:05:04.338Z,62.6
2023-01-17T06:06:48.036Z,62.6
2023-01-17T06:08:31.743Z,62.6
2023-01-17T06:10:15.447Z,62.6
2023-01-17T06:11:59.146Z,62.5
2023-01-17T06:13:42.877Z,62.5
2023-01-17T06:15:26.554Z,62.5
2023-01-17T06:17:10.270Z,62.5
2023-01-17T06:18:53.967Z,62.5
2023-01-17T06:20:37.659Z,62.5
2023-01-17T06:22:21.365Z,62.5
2023-01-17T06:24:05.091Z,62.4
2023-01-17T06:25:48.775Z,62.4
2023-01-17T06:27:32.476Z,62.4
2023-01-17T06:29:16.178Z,62.4
2023-01-17T06:30:59.882Z,62.4
2023-01-17T06:32:43.578Z,62.3
2023-01-17T06:34:27.290Z,62.4
2023-01-17T06:36:10.997Z,62.4
2023-01-17T06:37:54.685Z,62.1
2023-01-17T06:39:38.389Z,62.1
2023-01-17T06:41:22.096Z,62
2023-01-17T06:43:05.823Z,62.1
2023-01-17T06:44:49.500Z,62
2023-01-17T06:46:33.189Z,62
2023-01-17T06:48:16.906Z,62.1
2023-01-17T06:50:00.657Z,61.6
2023-01-17T06:51:44.309Z,62
2023-01-17T06:53:28.010Z,62.2
2023-01-17T06:55:11.715Z,62.3
2023-01-17T06:56:55.418Z,62.4
2023-01-17T06:58:39.171Z,62.4
2023-01-17T07:00:22.815Z,61.8
2023-01-17T07:02:06.595Z,61.7
2023-01-17T07:03:50.228Z,61.8
2023-01-17T07:05:33.951Z,61.7
2023-01-17T07:07:17.634Z,61.8
2023-01-17T07:09:01.633Z,61.9
2023-01-17T07:10:45.048Z,62.1
2023-01-17T07:12:28.755Z,62.2
2023-01-17T07:14:12.438Z,62.3
2023-01-17T07:15:56.154Z,62.4
2023-01-17T07:17:39.882Z,62.3
2023-01-17T07:19:23.563Z,61.9
2023-01-17T07:21:07.337Z,61.5
2023-01-17T07:22:50.999Z,61.5
2023-01-17T07:24:34.647Z,61.4
2023-01-17T07:26:18.374Z,61.5
2023-01-17T07:28:02.066Z,61.7
2023-01-17T07:29:45.766Z,61.8
2023-01-17T07:31:29.477Z,61.8
2023-01-17T07:33:13.280Z,61.6
2023-01-17T07:34:56.871Z,61.1
2023-01-17T07:36:40.744Z,61.2
2023-01-17T07:38:24.307Z,61.1
2023-01-17T07:40:08.018Z,60.4
2023-01-17T07:41:51.739Z,51.6
2023-01-17T07:43:35.395Z,53.4
2023-01-17T07:45:19.099Z,58
2023-01-17T07:47:02.789Z,59.1
2023-01-17T07:48:46.492Z,58.4
2023-01-17T07:50:30.248Z,57.3
2023-01-17T07:52:13.896Z,56.8
2023-01-17T07:53:57.655Z,56.8
2023-01-17T07:55:41.492Z,57
2023-01-17T07:57:25.003Z,57.2
2023-01-17T07:59:08.713Z,57.4
2023-01-17T08:00:52.418Z,57.5
2023-01-17T08:02:36.256Z,57.6
2023-01-17T08:04:19.845Z,57.7
2023-01-17T08:06:03.674Z,57.7
2023-01-17T08:07:47.225Z,57.8
2023-01-17T08:09:31.038Z,57.8
2023-01-17T08:11:14.721Z,58
2023-01-17T08:12:58.396Z,58
2023-01-17T08:14:42.183Z,58
2023-01-17T08:16:25.751Z,58.1
2023-01-17T08:18:09.498Z,58.1
2023-01-17T08:19:53.134Z,58.1
2023-01-17T08:21:36.842Z,58.1
2023-01-17T08:23:20.551Z,58.2
2023-01-17T08:26:47.964Z,58.2
2023-01-17T08:28:31.688Z,58.2
2023-01-17T08:30:15.371Z,58.3
2023-01-17T08:31:59.118Z,58.3
2023-01-17T08:33:42.815Z,58.3
2023-01-17T08:35:26.468Z,58.3
2023-01-17T08:37:10.286Z,58.7
2023-01-17T08:38:53.880Z,59
2023-01-17T08:40:37.654Z,59.1
2023-01-17T08:42:21.287Z,58.8
2023-01-17T08:44:04.998Z,58.8
2023-01-17T08:45:48.675Z,58.7
2023-01-17T08:47:32.464Z,58.7
2023-01-17T08:50:59.784Z,58.8
2023-01-17T08:52:43.481Z,58.7
2023-01-17T08:54:27.275Z,58.7
2023-01-17T08:56:10.891Z,58.6
2023-01-17T08:57:54.581Z,58.8
2023-01-17T08:59:38.293Z,58.7
2023-01-17T09:01:22.002Z,58.8
2023-01-17T09:03:05.704Z,58.8
2023-01-17T09:04:49.416Z,58.8
2023-01-17T09:06:33.119Z,58.8
2023-01-17T09:08:16.809Z,58.8
2023-01-17T09:10:00.521Z,58.8
2023-01-17T09:11:44.271Z,58.8
2023-01-17T09:13:27.936Z,58.9
2023-01-17T09:15:11.629Z,58.8
2023-01-17T09:16:55.334Z,58.8
2023-01-17T09:18:39.058Z,58.8
2023-01-17T09:20:22.731Z,58.8
2023-01-17T09:22:06.512Z,58.8
2023-01-17T09:23:50.141Z,58.7
2023-01-17T09:25:33.833Z,58.7
2023-01-17T09:27:17.557Z,58.7
2023-01-17T09:29:01.301Z,58.7
2023-01-17T09:30:44.948Z,58.7
2023-01-17T09:32:28.657Z,58.7
2023-01-17T09:34:12.349Z,58.6
2023-01-17T09:35:56.124Z,58.5
2023-01-17T09:37:39.833Z,58.4
2023-01-17T09:39:23.471Z,58.3
2023-01-17T09:41:07.163Z,58.2
2023-01-17T09:42:50.869Z,58.3
2023-01-17T09:44:34.607Z,58.4
2023-01-17T09:46:18.268Z,58.2
2023-01-17T09:48:01.972Z,58.3
2023-01-17T09:49:45.677Z,58.2
2023-01-17T09:51:29.477Z,58.2
2023-01-17T09:53:13.079Z,58.2
2023-01-17T09:54:56.790Z,58.1
2023-01-17T09:56:40.498Z,58
2023-01-17T09:58:24.315Z,58
2023-01-17T10:00:07.940Z,58
2023-01-17T10:01:51.585Z,58
2023-01-17T10:03:35.346Z,58
2023-01-17T10:05:18.995Z,58
2023-01-17T10:07:02.722Z,57.9
2023-01-17T10:08:46.425Z,58
2023-01-17T10:10:30.101Z,57.9
2023-01-17T10:12:13.911Z,57.9
2023-01-17T10:13:57.600Z,57.9
2023-01-17T10:15:41.340Z,57.9
2023-01-17T10:17:25.055Z,57.9
2023-01-17T10:19:08.624Z,57.9
2023-01-17T10:20:52.449Z,57.9
2023-01-17T10:22:36.011Z,57.8
2023-01-17T10:24:19.777Z,57.8
2023-01-17T10:26:03.562Z,57.9
2023-01-17T10:27:47.321Z,57.9
2023-01-17T10:29:30.985Z,57.8
2023-01-17T10:31:14.561Z,57.8
2023-01-17T10:32:58.420Z,57.8
2023-01-17T10:34:42.135Z,57.8
2023-01-17T10:36:25.813Z,57.7
2023-01-17T10:38:09.507Z,57.6
2023-01-17T10:39:53.162Z,57.7
2023-01-17T10:41:36.935Z,57.6
2023-01-17T10:43:20.512Z,57.4
2023-01-17T10:45:04.185Z,57.4
2023-01-17T10:46:47.933Z,57.4
2023-01-17T10:48:31.604Z,57.2
2023-01-17T10:50:15.336Z,57
2023-01-17T10:51:59.051Z,57
2023-01-17T10:53:42.656Z,56.8
2023-01-17T10:55:26.452Z,56.9
2023-01-17T10:57:10.097Z,56.9
2023-01-17T10:58:53.832Z,57
2023-01-17T11:00:37.545Z,57.1
2023-01-17T11:02:21.210Z,57.3
2023-01-17T11:04:04.868Z,57.4
2023-01-17T11:05:48.700Z,57.4
2023-01-17T11:07:32.451Z,57.5
2023-01-17T11:09:16.044Z,57.7
2023-01-17T11:10:59.684Z,57.7
2023-01-17T11:12:43.452Z,59.3
2023-01-17T11:14:27.166Z,59.6
2023-01-17T11:16:10.852Z,59
2023-01-17T11:17:54.524Z,59.1
2023-01-17T11:19:38.228Z,59.4
2023-01-17T11:21:22.032Z,59.9
2023-01-17T11:23:05.739Z,60
2023-01-17T11:24:49.507Z,59.7
2023-01-17T11:26:33.058Z,60.3
2023-01-17T11:28:16.715Z,59.9
2023-01-17T11:30:00.525Z,59.6
2023-01-17T11:31:44.130Z,59.8
2023-01-17T11:33:27.889Z,59.7
2023-01-17T11:35:11.520Z,59.8
2023-01-17T11:36:55.226Z,59.8
2023-01-17T11:38:38.962Z,60.4
2023-01-17T11:40:22.720Z,61.5
2023-01-17T11:42:06.337Z,60.2
2023-01-17T11:43:50.048Z,60.5
2023-01-17T11:45:33.754Z,60.5
2023-01-17T11:47:17.454Z,60.4
2023-01-17T11:49:01.163Z,60.3
2023-01-17T11:50:44.848Z,60.3
2023-01-17T11:52:28.572Z,60.2
2023-01-17T11:54:12.255Z,60.3
2023-01-17T11:55:55.980Z,60.3
2023-01-17T11:57:39.801Z,60.2
2023-01-17T11:59:23.359Z,60.4
2023-01-17T12:01:07.061Z,60.1
2023-01-17T12:02:50.783Z,60.1
2023-01-17T12:04:34.612Z,60.4
2023-01-17T12:06:18.382Z,60.1
2023-01-17T12:08:01.873Z,59.9
2023-01-17T12:09:45.582Z,60.2
2023-01-17T12:11:29.403Z,60.3
2023-01-17T12:13:13.111Z,60.3
2023-01-17T12:14:56.890Z,60.3
2023-01-17T12:16:40.475Z,60.5
2023-01-17T12:18:24.129Z,60.5
2023-01-17T12:20:07.927Z,60.6
2023-01-17T12:21:51.535Z,60.6
2023-01-17T12:23:35.354Z,60.6
2023-01-17T12:25:19.036Z,60.6
2023-01-17T12:27:02.734Z,60.4
2023-01-17T12:28:46.422Z,60.3
2023-01-17T12:30:30.005Z,60.2
2023-01-17T12:32:13.906Z,59.9
2023-01-17T12:33:57.413Z,59.8
2023-01-17T12:35:41.126Z,59.8
2023-01-17T12:37:25.003Z,59.8
2023-01-17T12:39:08.667Z,59.8
2023-01-17T12:40:52.403Z,59.8
2023-01-17T12:42:35.935Z,59.8
2023-01-17T12:44:19.673Z,59.8
2023-01-17T12:46:03.325Z,59.8
2023-01-17T12:47:47.128Z,59.8
2023-01-17T12:49:30.757Z,59.8
2023-01-17T12:51:14.488Z,59.8
2023-01-17T12:54:41.995Z,59.8
2023-01-17T12:56:25.597Z,59.8
2023-01-17T12:58:09.374Z,59.8
2023-01-17T12:59:52.983Z,59.8
2023-01-17T13:01:36.662Z,59.8
2023-01-17T13:03:20.461Z,59.7
2023-01-17T13:05:04.060Z,59.8
2023-01-17T13:06:47.756Z,59.7
2023-01-17T13:08:31.632Z,59.6
2023-01-17T13:10:15.226Z,59.5
2023-01-17T13:11:59.049Z,59.4
2023-01-17T13:13:42.632Z,59.4
2023-01-17T13:15:26.457Z,59.3
2023-01-17T13:17:10.081Z,59.3
2023-01-17T13:18:53.685Z,59.2
2023-01-17T13:20:37.448Z,59.2
2023-01-17T13:22:21.085Z,59.2
2023-01-17T13:24:04.797Z,59.1
2023-01-17T13:25:48.514Z,59.1
2023-01-17T13:27:32.289Z,59
2023-01-17T13:29:15.900Z,59
2023-01-17T13:30:59.640Z,59
2023-01-17T13:32:43.309Z,59
2023-01-17T13:34:26.998Z,58.9
2023-01-17T13:36:10.844Z,58.9
2023-01-17T13:37:54.420Z,58.9
2023-01-17T13:39:38.133Z,58.9
2023-01-17T13:41:21.966Z,58.8
2023-01-17T13:43:05.520Z,58.7
2023-01-17T13:44:49.237Z,58.7
2023-01-17T13:46:32.933Z,58.6
2023-01-17T13:48:16.640Z,58.6
2023-01-17T13:50:00.343Z,58.6
2023-01-17T13:51:44.030Z,58.6
2023-01-17T13:53:27.835Z,58.6
2023-01-17T13:55:11.436Z,58.6
2023-01-17T13:56:55.146Z,58.6
2023-01-17T13:58:38.842Z,58.7
2023-01-17T14:00:22.663Z,58.8
2023-01-17T14:02:06.244Z,58.7
2023-01-17T14:03:49.954Z,58.5
2023-01-17T14:05:33.663Z,58.3
2023-01-17T14:07:17.350Z,58.3
2023-01-17T14:09:01.059Z,58.3
2023-01-17T14:10:44.821Z,58.4
2023-01-17T14:12:28.523Z,58.4
2023-01-17T14:14:12.214Z,58.5
2023-01-17T14:15:55.909Z,58.5
2023-01-17T14:17:39.569Z,58.5
2023-01-17T14:19:23.303Z,58.5
2023-01-17T14:21:06.989Z,58.5
2023-01-17T14:22:50.677Z,58.5
2023-01-17T14:24:34.383Z,58.5
2023-01-17T14:26:18.081Z,58.4
2023-01-17T14:28:01.786Z,58.5
2023-01-17T14:29:45.476Z,58.6
2023-01-17T14:31:29.181Z,58.6
2023-01-17T14:33:12.891Z,58.4
2023-01-17T14:34:56.584Z,58.2
2023-01-17T14:36:40.307Z,58.2
2023-01-17T14:38:24.031Z,58.1
2023-01-17T14:40:07.710Z,58.1
2023-01-17T14:41:51.408Z,58
2023-01-17T14:43:35.121Z,58
2023-01-17T14:45:18.808Z,58
2023-01-17T14:47:02.570Z,58.1
2023-01-17T14:48:46.210Z,58.1
2023-01-17T14:50:29.924Z,58
2023-01-17T14:52:13.615Z,58
2023-01-17T14:53:57.321Z,58
2023-01-17T14:55:41.023Z,58
2023-01-17T14:57:24.729Z,58
2023-01-17T14:59:08.429Z,58.1
2023-01-17T15:00:52.128Z,58.1
2023-01-17T15:02:35.830Z,58
2023-01-17T15:04:19.632Z,58
2023-01-17T15:06:03.233Z,58
2023-01-17T15:07:46.970Z,58
2023-01-17T15:09:30.685Z,58
2023-01-17T15:11:14.344Z,58
2023-01-17T15:12:58.083Z,58
2023-01-17T15:14:41.865Z,58.1
2023-01-17T15:16:25.468Z,58.1
2023-01-17T15:18:09.160Z,58
2023-01-17T15:19:52.938Z,58.1
2023-01-17T15:21:36.563Z,58.1
2023-01-17T15:23:20.273Z,58.1
2023-01-17T15:25:03.999Z,58.3
2023-01-17T15:26:47.681Z,58.3
2023-01-17T15:28:31.381Z,58.3
2023-01-17T15:30:15.084Z,58.3
2023-01-17T15:31:58.793Z,58.2
2023-01-17T15:33:42.572Z,58.2
2023-01-17T15:35:26.185Z,58.2
2023-01-17T15:37:09.916Z,58.1
2023-01-17T15:38:53.600Z,58.2
2023-01-17T15:40:37.292Z,58.5
2023-01-17T15:42:21.009Z,58.5
2023-01-17T15:44:04.719Z,58.4
2023-01-17T15:45:48.404Z,58.2
2023-01-17T15:47:32.118Z,58.1
2023-01-17T15:49:15.815Z,58.1
2023-01-17T15:50:59.526Z,58
2023-01-17T15:52:43.211Z,57.9
2023-01-17T15:54:26.931Z,57.9
2023-01-17T15:56:10.673Z,58
2023-01-17T15:57:54.331Z,58
2023-01-17T15:59:38.040Z,57.8
2023-01-17T16:01:21.730Z,57.8
2023-01-17T16:03:05.440Z,57.8
2023-01-17T16:04:49.143Z,57.8
2023-01-17T16:06:32.847Z,57.9
2023-01-17T16:08:16.552Z,57.9
2023-01-17T16:10:00.303Z,57.9
2023-01-17T16:11:43.953Z,57.9
2023-01-17T16:13:27.663Z,57.9
2023-01-17T16:15:11.360Z,57.9
2023-01-17T16:16:55.083Z,57.9
2023-01-17T16:18:38.770Z,57.9
2023-01-17T16:20:22.469Z,58
2023-01-17T16:22:06.176Z,58
2023-01-17T16:23:49.867Z,58
2023-01-17T16:25:33.569Z,58.1
2023-01-17T16:29:00.978Z,58.1
2023-01-17T16:30:44.680Z,58.1
2023-01-17T16:32:28.391Z,58.1
2023-01-17T16:34:12.111Z,58
2023-01-17T16:35:55.798Z,58
2023-01-17T16:37:39.492Z,58
2023-01-17T16:39:23.192Z,57.9
2023-01-17T16:41:06.899Z,57.9
2023-01-17T16:42:50.592Z,57.9
2023-01-17T16:44:34.301Z,57.9
2023-01-17T16:46:17.999Z,57.9
2023-01-17T16:48:01.702Z,57.9
2023-01-17T16:49:45.408Z,58
2023-01-17T16:51:29.106Z,58.1
2023-01-17T16:53:12.817Z,59.7
2023-01-17T16:54:56.514Z,60.4
2023-01-17T16:56:40.219Z,60.5
2023-01-17T16:58:23.921Z,60.6
2023-01-17T17:00:07.625Z,60.5
2023-01-17T17:01:51.324Z,60.4
2023-01-17T17:03:35.036Z,60.5
2023-01-17T17:05:18.732Z,60.6
2023-01-17T17:07:02.453Z,60.5
2023-01-17T17:08:46.142Z,60.1
2023-01-17T17:10:29.827Z,60.5
2023-01-17T17:12:13.545Z,60.5
2023-01-17T17:13:57.364Z,61.4
2023-01-17T17:15:40.942Z,61.9
2023-01-17T17:17:24.748Z,62.3
2023-01-17T17:19:08.356Z,62.5
2023-01-17T17:20:52.108Z,61.9
2023-01-17T17:22:35.748Z,61.3
2023-01-17T17:24:19.455Z,61.3
2023-01-17T17:26:03.184Z,60.5
2023-01-17T17:27:46.858Z,58.1
2023-01-17T17:29:30.652Z,47.5
2023-01-17T17:31:14.282Z,42.9
2023-01-17T17:32:57.990Z,58.9
2023-01-17T17:34:41.693Z,60
2023-01-17T17:36:25.370Z,58.5
2023-01-17T17:38:09.073Z,57.8
2023-01-17T17:39:52.806Z,57.2
2023-01-17T17:41:36.480Z,57.6
2023-01-17T17:43:20.180Z,57.4
2023-01-17T17:45:03.900Z,57.4
2023-01-17T17:46:47.588Z,57.4
2023-01-17T17:48:31.295Z,57.3
2023-01-17T17:50:14.993Z,57.1
2023-01-17T17:51:58.697Z,57.1
2023-01-17T17:53:42.407Z,57.1
2023-01-17T17:57:09.801Z,57
2023-01-17T17:58:53.514Z,56.7
2023-01-17T18:00:37.212Z,56.9
2023-01-17T18:02:20.976Z,56.7
2023-01-17T18:04:04.611Z,57
2023-01-17T18:05:48.315Z,57.4
2023-01-17T18:07:32.022Z,57.6
2023-01-17T18:09:15.763Z,58.2
2023-01-17T18:10:59.418Z,57.8
2023-01-17T18:12:43.123Z,61.5
2023-01-17T18:14:26.830Z,63.7
2023-01-17T18:16:10.660Z,64.1
2023-01-17T18:17:54.246Z,63.9
2023-01-17T18:19:37.965Z,63.8
2023-01-17T18:21:21.635Z,63.4
2023-01-17T18:23:05.342Z,63.2
2023-01-17T18:24:49.064Z,63.2
2023-01-17T18:26:32.741Z,62.9
2023-01-17T18:28:16.450Z,61.4
2023-01-17T18:30:00.246Z,61.4
2023-01-17T18:31:43.863Z,61.6
2023-01-17T18:33:27.559Z,61.1
2023-01-17T18:35:11.261Z,60.8
2023-01-17T18:36:54.964Z,60.4
2023-01-17T18:38:38.670Z,60.3
2023-01-17T18:40:22.368Z,60
2023-01-17T18:42:06.162Z,60
2023-01-17T18:43:49.771Z,60.2
2023-01-17T18:45:33.485Z,60.4
2023-01-17T18:47:17.172Z,59.1
2023-01-17T18:49:00.889Z,60
2023-01-17T18:50:44.580Z,59.6
2023-01-17T18:52:28.365Z,59.2
2023-01-17T18:54:12.047Z,59
2023-01-17T18:55:55.683Z,58.9
2023-01-17T18:57:39.394Z,59
2023-01-17T18:59:23.133Z,59
2023-01-17T19:01:06.812Z,59.1
2023-01-17T19:02:50.516Z,59.2
2023-01-17T19:04:34.291Z,59.3
2023-01-17T19:06:17.913Z,59.3
2023-01-17T19:08:01.605Z,59.4
2023-01-17T19:09:45.386Z,59.4
2023-01-17T19:11:29.070Z,59.4
2023-01-17T19:13:12.718Z,59.4
2023-01-17T19:14:56.428Z,59.5
2023-01-17T19:16:40.142Z,59.5
2023-01-17T19:18:23.826Z,59.5
2023-01-17T19:20:07.549Z,59.6
2023-01-17T19:21:51.232Z,59.6
2023-01-17T19:23:34.940Z,59.6
2023-01-17T19:25:18.668Z,59.6
2023-01-17T19:27:02.407Z,59.7
2023-01-17T19:28:46.049Z,59.7
2023-01-17T19:30:29.812Z,59.7
2023-01-17T19:32:13.463Z,59.9
2023-01-17T19:33:57.206Z,60
2023-01-17T19:35:40.856Z,60
2023-01-17T19:37:24.562Z,59.9
2023-01-17T19:39:08.274Z,60
2023-01-17T19:40:51.969Z,60
2023-01-17T19:42:35.674Z,59.9
2023-01-17T19:44:19.367Z,60
2023-01-17T19:46:03.074Z,59.9
2023-01-17T19:47:46.788Z,59.9
2023-01-17T19:49:30.563Z,59.8
2023-01-17T19:51:14.200Z,59.8
2023-01-17T19:52:57.919Z,59.8
2023-01-17T19:54:41.677Z,59.8
2023-01-17T19:56:25.293Z,59.8
2023-01-17T19:58:08.988Z,59.9
2023-01-17T19:59:52.703Z,59.9
2023-01-17T20:01:36.406Z,59.9
2023-01-17T20:03:20.096Z,59.9
2023-01-17T20:05:03.802Z,60
2023-01-17T20:06:47.530Z,59.9
2023-01-17T20:08:31.311Z,60
2023-01-17T20:10:14.915Z,60
2023-01-17T20:11:58.662Z,60.1
2023-01-17T20:13:42.315Z,60.1
2023-01-17T20:15:26.036Z,60.2
2023-01-17T20:17:09.737Z,60.2
2023-01-17T20:18:53.467Z,60.2
2023-01-17T20:20:37.128Z,60.3
2023-01-17T20:22:20.886Z,60.3
2023-01-17T20:24:04.587Z,60.3
2023-01-17T20:25:48.227Z,60.3
2023-01-17T20:27:31.954Z,60.4
2023-01-17T20:29:15.841Z,60.5
2023-01-17T20:30:59.333Z,60.5
2023-01-17T20:32:43.037Z,60.5
2023-01-17T20:34:26.786Z,60.5
2023-01-17T20:36:10.585Z,60.6
2023-01-17T20:37:54.147Z,60.7
2023-01-17T20:39:37.891Z,60.7
2023-01-17T20:41:21.551Z,60.7
2023-01-17T20:43:05.258Z,60.7
2023-01-17T20:44:49.011Z,60.8
2023-01-17T20:46:32.665Z,60.8
2023-01-17T20:48:16.352Z,60.8
2023-01-17T20:50:00.135Z,60.8
2023-01-17T20:51:43.848Z,60.8
2023-01-17T20:53:27.473Z,60.9
2023-01-17T20:55:11.286Z,60.9
2023-01-17T20:56:54.883Z,60.9
2023-01-17T20:58:38.596Z,60.9
2023-01-17T21:00:22.274Z,61
2023-01-17T21:02:05.994Z,61
2023-01-17T21:03:49.680Z,61
2023-01-17T21:05:33.441Z,61
2023-01-17T21:07:17.087Z,61
2023-01-17T21:09:00.793Z,61.1
2023-01-17T21:10:44.498Z,61
2023-01-17T21:12:28.193Z,61
2023-01-17T21:14:11.964Z,61
2023-01-17T21:15:55.599Z,61
2023-01-17T21:17:39.305Z,61
2023-01-17T21:19:23.084Z,61
2023-01-17T21:21:06.711Z,61
2023-01-17T21:22:50.463Z,61
2023-01-17T21:24:34.116Z,61
2023-01-17T21:26:17.848Z,61
2023-01-17T21:28:01.517Z,60.9
2023-01-17T21:29:45.229Z,60.9
2023-01-17T21:31:28.937Z,61
2023-01-17T21:33:12.626Z,61
2023-01-17T21:34:56.338Z,61
2023-01-17T21:36:40.070Z,61
2023-01-17T21:38:23.738Z,61
2023-01-17T21:40:07.443Z,61.1
2023-01-17T21:41:51.150Z,61.1
2023-01-17T21:43:34.859Z,61.1
2023-01-17T21:45:18.585Z,61.1
2023-01-17T21:47:02.290Z,61.2
2023-01-17T21:48:45.962Z,61.2
2023-01-17T21:50:29.658Z,61.1
2023-01-17T21:52:13.361Z,61.1
2023-01-17T21:53:57.060Z,61.1
2023-01-17T21:55:40.760Z,61.1
2023-01-17T21:57:24.479Z,61.2
2023-01-17T21:59:08.333Z,61.2
2023-01-17T22:00:51.872Z,61.2
2023-01-17T22:02:35.572Z,61.2
2023-01-17T22:04:19.264Z,61.2
2023-01-17T22:06:02.994Z,61.2
2023-01-17T22:07:46.680Z,61.3
2023-01-17T22:09:30.462Z,61.3
2023-01-17T22:11:14.091Z,61.3
2023-01-17T22:12:57.815Z,61.3
2023-01-17T22:14:41.488Z,61.3
2023-01-17T22:16:25.192Z,61.3
2023-01-17T22:18:08.889Z,61.4
2023-01-17T22:19:52.604Z,61.4
2023-01-17T22:21:36.292Z,61.4
2023-01-17T22:23:20.016Z,61.4
2023-01-17T22:25:03.704Z,61.4
2023-01-17T22:26:47.406Z,61.4
2023-01-17T22:28:31.116Z,61.4
2023-01-17T22:30:14.809Z,61.4
2023-01-17T22:31:58.508Z,61.4
2023-01-17T22:33:42.214Z,61.4
2023-01-17T22:35:25.913Z,61.5
2023-01-17T22:37:09.633Z,61.5
2023-01-17T22:38:53.318Z,61.5
2023-01-17T22:40:37.015Z,61.5
2023-01-17T22:42:20.755Z,61.5
2023-01-17T22:44:04.489Z,61.5
2023-01-17T22:45:48.132Z,62
2023-01-17T22:47:31.835Z,62.5
2023-01-17T22:49:15.525Z,62.3
2023-01-17T22:50:59.243Z,62.1
2023-01-17T22:52:42.939Z,61.9
2023-01-17T22:54:26.641Z,62.2
2023-01-17T22:56:10.346Z,62.2
2023-01-17T22:57:54.063Z,62.2
2023-01-17T22:59:37.751Z,62.3
2023-01-17T23:01:21.462Z,62.3
2023-01-17T23:03:05.158Z,62.3
2023-01-17T23:04:48.861Z,62.2
2023-01-17T23:06:32.566Z,62.2
2023-01-17T23:08:16.262Z,62.4
2023-01-17T23:09:59.980Z,62.4
2023-01-17T23:11:43.670Z,62.5
2023-01-17T23:13:27.372Z,62.5
2023-01-17T23:15:11.089Z,62.6
2023-01-17T23:16:54.773Z,62.6
2023-01-17T23:18:38.478Z,62.7
2023-01-17T23:20:22.198Z,62.7
2023-01-17T23:22:05.881Z,62.8
2023-01-17T23:23:49.599Z,62.8
2023-01-17T23:25:33.287Z,62.8
2023-01-17T23:27:16.979Z,62.6